Time;durP1;ratioP1;P1;durP2;ratioP2;P2;SDS_P1;SDS_P2;PMS_P1;PMS_P2;Temp;Humidity;BMP_temperature;BMP_pressure;BME280_temperature;BME280_humidity;BME280_pressure;Samples;Min_cycle;Max_cycle;Signal;HPM_P1;HPM_P2
2021/04/23 00:01:31;;;;;;;18.52;2.53;;;6.60;99.90;;;;;;5064761;28;20032;-74
2021/04/23 00:04:00;;;;;;;6.45;2.55;;;6.60;99.90;;;;;;5065184;28;20409;-73
2021/04/23 00:06:29;;;;;;;5.30;2.47;;;6.50;99.90;;;;;;5064979;28;20037;-74
2021/04/23 00:09:17;;;;;;;16.58;3.28;;;6.50;99.90;;;;;;5064767;28;20033;-73
2021/04/23 00:11:49;;;;;;;8.75;3.03;;;6.50;99.90;;;;;;5063318;28;20048;-74
2021/04/23 00:14:17;;;;;;;8.32;2.30;;;6.50;99.90;;;;;;5064755;28;20093;-73
2021/04/23 00:16:43;;;;;;;8.23;2.45;;;6.40;99.90;;;;;;5063172;28;20037;-74
2021/04/23 00:19:16;;;;;;;4.60;1.95;;;6.50;99.90;;;;;;5064444;28;20077;-73
2021/04/23 00:21:43;;;;;;;16.50;3.20;;;6.50;99.90;;;;;;5063567;28;20069;-73
2021/04/23 00:24:09;;;;;;;12.25;2.72;;;6.50;99.90;;;;;;5063328;28;20025;-73
2021/04/23 00:26:35;;;;;;;10.38;2.60;;;6.50;99.90;;;;;;5064622;28;20064;-73
2021/04/23 00:29:00;;;;;;;3.92;1.98;;;6.50;99.90;;;;;;5063104;28;20089;-74
2021/04/23 00:31:26;;;;;;;11.65;2.35;;;6.50;99.90;;;;;;5064506;28;20029;-74
2021/04/23 00:33:52;;;;;;;6.97;3.05;;;6.60;99.90;;;;;;5063229;28;20025;-72
2021/04/23 00:36:18;;;;;;;7.03;2.75;;;6.60;99.90;;;;;;5064360;28;20032;-73
2021/04/23 00:38:44;;;;;;;9.15;1.98;;;6.60;99.90;;;;;;5062884;28;20025;-73
2021/04/23 00:41:13;;;;;;;6.43;1.85;;;6.50;99.90;;;;;;5064349;28;20040;-74
2021/04/23 00:43:45;;;;;;;5.68;2.03;;;6.50;99.90;;;;;;5062686;28;20024;-74
2021/04/23 00:46:12;;;;;;;5.97;2.28;;;6.60;99.90;;;;;;5064290;28;20033;-73
2021/04/23 00:48:45;;;;;;;7.13;2.45;;;6.50;99.90;;;;;;5064196;28;20060;-73
2021/04/23 00:51:19;;;;;;;7.43;1.70;;;6.50;99.90;;;;;;5064310;28;20025;-73
2021/04/23 00:53:47;;;;;;;7.38;2.67;;;6.50;99.90;;;;;;5063641;28;20492;-74
2021/04/23 00:56:22;;;;;;;6.50;2.72;;;6.50;99.90;;;;;;5062554;28;20577;-74
2021/04/23 00:58:48;;;;;;;8.35;2.42;;;6.50;99.90;;;;;;5064108;28;20025;-74
2021/04/23 01:01:41;;;;;;;4.40;2.38;;;6.50;99.90;;;;;;5062756;28;20439;-74
2021/04/23 01:04:12;;;;;;;18.02;3.28;;;6.40;99.90;;;;;;5062735;28;20078;-75
2021/04/23 01:06:37;;;;;;;5.20;2.03;;;6.40;99.90;;;;;;5062652;28;20086;-73
2021/04/23 01:09:13;;;;;;;10.45;2.75;;;6.50;99.90;;;;;;5063858;28;20025;-74
2021/04/23 01:11:39;;;;;;;9.65;3.35;;;6.40;99.90;;;;;;5062371;28;20029;-73
2021/04/23 01:14:05;;;;;;;11.68;2.15;;;6.40;99.90;;;;;;5063888;28;20025;-73
2021/04/23 01:16:31;;;;;;;5.63;2.72;;;6.40;99.90;;;;;;5063580;28;20050;-73
2021/04/23 01:18:58;;;;;;;17.75;2.95;;;6.40;99.90;;;;;;5066508;28;20036;-76
2021/04/23 01:21:31;;;;;;;14.98;2.47;;;6.50;99.90;;;;;;5066841;28;20049;-75
2021/04/23 01:23:59;;;;;;;14.02;2.70;;;6.50;99.90;;;;;;5067890;28;20150;-74
2021/04/23 01:26:27;;;;;;;6.30;2.28;;;6.40;99.90;;;;;;5068476;28;20093;-75
2021/04/23 01:28:54;;;;;;;10.18;2.72;;;6.50;99.90;;;;;;5067594;28;20090;-76
2021/04/23 01:31:23;;;;;;;16.15;2.47;;;6.50;99.90;;;;;;5066216;28;20047;-75
2021/04/23 01:33:51;;;;;;;9.55;2.95;;;6.50;99.90;;;;;;5066326;28;20084;-76
2021/04/23 01:36:17;;;;;;;7.60;2.90;;;6.40;99.90;;;;;;5067303;28;20032;-74
2021/04/23 01:38:45;;;;;;;7.47;1.98;;;6.50;99.90;;;;;;5066181;28;20025;-75
2021/04/23 01:41:11;;;;;;;3.60;1.83;;;6.50;99.90;;;;;;5067692;28;20088;-74
2021/04/23 01:43:37;;;;;;;9.93;2.88;;;6.40;99.90;;;;;;5067468;28;20025;-74
2021/04/23 01:46:05;;;;;;;4.43;2.10;;;6.50;99.90;;;;;;5067326;28;20037;-74
2021/04/23 01:48:32;;;;;;;6.70;2.70;;;6.50;99.90;;;;;;5067693;28;20025;-73
2021/04/23 01:50:59;;;;;;;6.93;2.25;;;6.40;99.90;;;;;;5067339;28;20024;-74
2021/04/23 01:53:25;;;;;;;5.40;1.90;;;6.40;99.90;;;;;;5067505;28;20089;-74
2021/04/23 01:55:51;;;;;;;6.88;2.92;;;6.30;99.90;;;;;;5067467;28;20064;-73
2021/04/23 01:58:17;;;;;;;6.65;2.30;;;6.30;99.90;;;;;;5067387;28;20025;-74
2021/04/23 02:00:46;;;;;;;4.03;2.22;;;6.30;99.90;;;;;;5067011;28;20027;-74
2021/04/23 02:03:14;;;;;;;9.18;2.72;;;6.30;99.90;;;;;;5067388;28;20085;-73
2021/04/23 02:05:42;;;;;;;14.38;2.40;;;6.30;99.90;;;;;;5065360;28;20084;-74
2021/04/23 02:08:09;;;;;;;14.45;2.63;;;6.30;99.90;;;;;;5066905;28;20040;-74
2021/04/23 02:10:42;;;;;;;7.93;2.72;;;6.30;99.90;;;;;;5067174;28;20466;-73
2021/04/23 02:13:08;;;;;;;7.93;2.50;;;6.30;99.90;;;;;;5067191;28;20029;-74
2021/04/23 02:15:34;;;;;;;8.85;2.28;;;6.30;99.90;;;;;;5067203;28;20032;-74
2021/04/23 02:18:00;;;;;;;9.73;2.28;;;6.30;99.90;;;;;;5067104;28;20052;-75
2021/04/23 02:20:29;;;;;;;8.85;2.00;;;6.30;99.90;;;;;;5066788;28;20440;-74
2021/04/23 02:22:57;;;;;;;4.57;2.17;;;6.30;99.90;;;;;;5065043;28;20113;-74
2021/04/23 02:25:23;;;;;;;15.80;2.13;;;6.20;99.90;;;;;;5067187;28;20021;-74
2021/04/23 02:27:50;;;;;;;6.50;2.45;;;6.20;99.90;;;;;;5066843;28;20045;-73
2021/04/23 02:30:28;;;;;;;8.55;2.53;;;6.20;99.90;;;;;;5064342;28;20029;-74
2021/04/23 02:32:55;;;;;;;5.85;2.00;;;6.20;99.90;;;;;;5066788;28;20036;-74
2021/04/23 02:35:22;;;;;;;8.43;2.30;;;6.20;99.90;;;;;;5066456;28;20029;-74
2021/04/23 02:37:50;;;;;;;14.32;3.15;;;6.20;99.90;;;;;;5065351;28;20093;-74
2021/04/23 02:40:18;;;;;;;4.05;2.30;;;6.10;99.90;;;;;;5066370;28;20083;-74
2021/04/23 02:42:45;;;;;;;11.68;2.97;;;6.10;99.90;;;;;;5065369;28;20029;-74
2021/04/23 02:45:15;;;;;;;9.35;3.03;;;6.00;99.90;;;;;;5066596;28;20052;-73
2021/04/23 02:47:41;;;;;;;6.13;2.30;;;6.00;99.90;;;;;;5066451;28;20096;-74
2021/04/23 02:50:09;;;;;;;7.85;2.72;;;6.00;99.90;;;;;;5064788;28;20032;-73
2021/04/23 02:52:34;;;;;;;30.48;4.55;;;5.90;99.90;;;;;;5066115;28;20036;-74
2021/04/23 02:55:00;;;;;;;9.77;2.92;;;5.90;99.90;;;;;;5066521;28;20021;-74
2021/04/23 02:57:27;;;;;;;12.60;2.90;;;5.90;99.90;;;;;;5066239;28;20028;-74
2021/04/23 02:59:53;;;;;;;7.07;2.83;;;5.90;99.90;;;;;;5065994;28;20131;-74
2021/04/23 03:02:19;;;;;;;6.03;2.47;;;5.90;99.90;;;;;;5066432;28;20025;-74
2021/04/23 03:04:45;;;;;;;13.55;2.72;;;5.90;99.90;;;;;;5066288;28;20025;-74
2021/04/23 03:07:11;;;;;;;5.22;1.88;;;5.80;99.90;;;;;;5064422;28;20055;-74
2021/04/23 03:09:37;;;;;;;8.48;2.20;;;5.80;99.90;;;;;;5064824;28;20033;-74
2021/04/23 03:12:03;;;;;;;5.35;2.22;;;5.80;99.90;;;;;;5065652;28;20029;-74
2021/04/23 03:14:29;;;;;;;6.53;2.17;;;5.80;99.90;;;;;;5065944;28;20029;-75
2021/04/23 03:16:55;;;;;;;9.35;2.15;;;5.80;99.90;;;;;;5066148;28;20102;-74
2021/04/23 03:19:22;;;;;;;9.05;2.10;;;5.70;99.90;;;;;;5065877;28;20440;-73
2021/04/23 03:21:50;;;;;;;6.35;2.50;;;5.90;99.90;;;;;;5063635;28;20660;-75
2021/04/23 03:24:17;;;;;;;4.57;2.08;;;5.70;99.90;;;;;;5065742;28;20032;-75
2021/04/23 03:26:44;;;;;;;5.72;2.20;;;5.70;99.90;;;;;;5065859;28;20037;-75
2021/04/23 03:29:12;;;;;;;10.32;2.22;;;5.80;99.90;;;;;;5065142;28;20085;-74
2021/04/23 03:31:38;;;;;;;10.50;2.95;;;5.80;99.90;;;;;;5065752;28;20032;-74
2021/04/23 03:34:04;;;;;;;6.85;2.30;;;5.90;99.90;;;;;;5065608;28;20481;-74
2021/04/23 03:36:30;;;;;;;4.90;2.63;;;5.70;99.90;;;;;;5065702;28;20033;-73
2021/04/23 03:38:57;;;;;;;11.35;2.17;;;5.80;99.90;;;;;;5065749;28;20462;-75
2021/04/23 03:41:29;;;;;;;21.75;2.80;;;5.70;99.90;;;;;;5064018;28;20374;-75
2021/04/23 03:43:56;;;;;;;5.07;2.30;;;5.80;99.90;;;;;;5064031;28;20029;-73
2021/04/23 03:46:23;;;;;;;5.38;2.83;;;5.70;99.90;;;;;;5065521;28;20072;-75
2021/04/23 03:48:48;;;;;;;5.13;1.67;;;5.70;99.90;;;;;;5064991;28;20029;-73
2021/04/23 03:51:16;;;;;;;13.10;2.15;;;5.70;99.90;;;;;;5063405;28;20032;-75
2021/04/23 03:53:42;;;;;;;7.38;2.83;;;5.70;99.90;;;;;;5064897;28;20108;-75
2021/04/23 03:56:08;;;;;;;13.38;1.92;;;5.70;99.90;;;;;;5064955;28;20072;-74
2021/04/23 03:58:34;;;;;;;5.80;2.88;;;5.70;99.90;;;;;;5065079;28;20048;-76
2021/04/23 04:01:06;;;;;;;4.55;1.92;;;5.70;99.90;;;;;;5065174;28;20462;-75
2021/04/23 04:03:32;;;;;;;15.20;2.28;;;5.70;99.90;;;;;;5064621;28;20485;-76
2021/04/23 04:05:57;;;;;;;5.65;2.35;;;5.80;99.90;;;;;;5064875;28;20029;-74
2021/04/23 04:08:24;;;;;;;19.20;3.42;;;5.70;99.90;;;;;;5064965;28;20028;-74
2021/04/23 04:10:50;;;;;;;11.32;3.13;;;5.70;99.90;;;;;;5064835;28;20021;-74
2021/04/23 04:13:17;;;;;;;4.40;2.10;;;5.60;99.90;;;;;;5064687;28;20025;-75
2021/04/23 04:15:43;;;;;;;4.28;1.92;;;5.60;99.90;;;;;;5064238;28;20029;-74
2021/04/23 04:18:10;;;;;;;8.38;2.13;;;5.60;99.90;;;;;;5064240;28;20032;-75
2021/04/23 04:20:38;;;;;;;5.30;2.25;;;5.70;99.90;;;;;;5064788;28;20029;-75
2021/04/23 04:23:06;;;;;;;5.75;2.78;;;5.70;99.90;;;;;;5063729;28;20053;-75
2021/04/23 04:25:35;;;;;;;8.40;2.58;;;5.80;99.90;;;;;;5064449;28;20480;-75
2021/04/23 04:28:01;;;;;;;12.45;2.28;;;5.80;99.90;;;;;;5062952;28;20060;-75
2021/04/23 04:30:27;;;;;;;7.53;2.38;;;5.80;99.90;;;;;;5063171;28;20085;-75
2021/04/23 04:32:56;;;;;;;10.00;2.42;;;5.70;99.90;;;;;;5064743;28;20518;-74
2021/04/23 04:35:26;;;;;;;6.07;1.73;;;5.80;99.90;;;;;;5064897;28;20036;-74
2021/04/23 04:37:51;;;;;;;10.90;2.42;;;5.70;99.90;;;;;;5064882;28;20044;-75
2021/04/23 04:40:18;;;;;;;2.92;1.77;;;5.70;99.90;;;;;;5063106;28;20036;-75
2021/04/23 04:42:44;;;;;;;4.57;1.98;;;5.70;99.90;;;;;;5063319;28;20033;-74
2021/04/23 04:45:15;;;;;;;5.03;2.47;;;5.70;99.90;;;;;;5064434;28;20360;-74
2021/04/23 04:47:41;;;;;;;8.38;2.38;;;5.70;99.90;;;;;;5063489;28;20041;-75
2021/04/23 04:50:11;;;;;;;8.23;2.55;;;5.70;99.90;;;;;;5063377;28;20056;-74
2021/04/23 04:52:37;;;;;;;6.78;2.05;;;5.80;99.90;;;;;;5064045;28;20021;-74
2021/04/23 04:55:05;;;;;;;5.35;2.28;;;5.90;99.90;;;;;;5064665;28;20527;-75
2021/04/23 04:57:33;;;;;;;6.55;2.30;;;5.80;99.90;;;;;;5064608;28;20060;-76
2021/04/23 04:59:59;;;;;;;5.88;2.35;;;5.80;99.90;;;;;;5064371;28;20033;-75
2021/04/23 05:02:24;;;;;;;12.55;2.83;;;5.90;99.90;;;;;;5063370;28;20029;-74
2021/04/23 05:04:50;;;;;;;9.52;3.25;;;5.90;99.90;;;;;;5063418;28;20025;-74
2021/04/23 05:07:15;;;;;;;5.25;3.20;;;5.90;99.90;;;;;;5059089;28;20042;-75
2021/04/23 05:09:41;;;;;;;10.93;2.45;;;5.90;99.90;;;;;;5054815;28;20028;-76
2021/04/23 05:12:07;;;;;;;8.57;2.53;;;6.00;99.90;;;;;;5043087;28;20036;-77
2021/04/23 05:14:32;;;;;;;10.38;2.70;;;6.00;99.90;;;;;;5042522;28;20466;-73
2021/04/23 05:16:58;;;;;;;9.68;2.35;;;6.10;99.90;;;;;;5043623;28;20037;-75
2021/04/23 05:19:24;;;;;;;6.35;1.75;;;6.20;99.90;;;;;;5044171;28;20024;-74
2021/04/23 05:21:49;;;;;;;2.17;1.15;;;6.10;99.90;;;;;;5043673;28;20092;-74
2021/04/23 05:24:15;;;;;;;14.32;3.13;;;6.10;99.90;;;;;;5044333;28;20062;-75
2021/04/23 05:26:41;;;;;;;6.95;2.00;;;6.00;99.90;;;;;;5042222;28;20037;-76
2021/04/23 05:29:06;;;;;;;7.78;2.88;;;6.10;99.90;;;;;;5043720;28;20030;-77
2021/04/23 05:31:33;;;;;;;10.95;3.20;;;6.00;99.90;;;;;;5044041;28;20036;-75
2021/04/23 05:34:00;;;;;;;8.68;2.05;;;6.00;99.90;;;;;;5044120;28;20029;-75
2021/04/23 05:36:26;;;;;;;11.93;2.45;;;6.00;99.90;;;;;;5042650;28;20068;-75
2021/04/23 05:38:52;;;;;;;6.13;2.38;;;6.00;99.90;;;;;;5042783;28;20068;-75
2021/04/23 05:41:18;;;;;;;10.60;1.75;;;6.10;99.90;;;;;;5044090;28;20033;-73
2021/04/23 05:43:45;;;;;;;16.27;2.88;;;6.00;99.90;;;;;;5042955;28;20030;-75
2021/04/23 05:46:11;;;;;;;9.38;2.38;;;6.10;99.90;;;;;;5043669;28;20038;-76
2021/04/23 05:48:37;;;;;;;8.40;3.28;;;6.10;99.90;;;;;;5045940;28;20033;-75
2021/04/23 05:51:03;;;;;;;8.48;2.42;;;6.10;99.90;;;;;;5053534;28;20033;-76
2021/04/23 05:53:29;;;;;;;8.77;1.83;;;6.20;99.90;;;;;;5052864;28;20025;-75
2021/04/23 05:55:55;;;;;;;8.25;2.22;;;6.30;99.90;;;;;;5046717;28;20032;-75
2021/04/23 05:58:21;;;;;;;6.40;1.88;;;6.40;99.90;;;;;;5040638;28;20033;-75
2021/04/23 06:00:47;;;;;;;7.97;2.03;;;6.40;99.90;;;;;;5041580;28;20045;-75
2021/04/23 06:03:14;;;;;;;3.30;1.63;;;6.40;99.90;;;;;;5043225;28;20100;-75
2021/04/23 06:05:40;;;;;;;7.70;2.75;;;6.50;99.90;;;;;;5046539;28;20052;-75
2021/04/23 06:08:08;;;;;;;8.07;1.98;;;6.60;99.90;;;;;;5046773;28;20037;-76
2021/04/23 06:10:34;;;;;;;11.60;2.85;;;6.60;99.90;;;;;;5046113;28;20029;-76
2021/04/23 06:13:00;;;;;;;6.38;2.03;;;6.60;99.90;;;;;;5047012;28;20052;-75
2021/04/23 06:15:28;;;;;;;6.45;2.10;;;6.70;99.90;;;;;;5046825;28;20021;-77
2021/04/23 06:17:55;;;;;;;5.88;1.92;;;6.60;99.90;;;;;;5045892;28;20030;-77
2021/04/23 06:20:25;;;;;;;3.92;1.75;;;6.60;99.90;;;;;;5045468;28;20034;-75
2021/04/23 06:22:51;;;;;;;12.30;1.70;;;6.60;99.90;;;;;;5046678;28;20046;-74
2021/04/23 06:25:18;;;;;;;5.50;2.33;;;6.70;99.90;;;;;;5046717;28;20033;-75
2021/04/23 06:27:45;;;;;;;5.53;2.28;;;6.80;99.90;;;;;;5046569;28;20041;-75
2021/04/23 06:30:14;;;;;;;9.70;2.28;;;6.90;99.90;;;;;;5045326;28;20036;-77
2021/04/23 06:32:43;;;;;;;9.52;2.33;;;7.10;99.90;;;;;;5045405;28;20037;-76
2021/04/23 06:35:13;;;;;;;7.20;1.83;;;7.20;99.90;;;;;;5045532;28;20033;-75
2021/04/23 06:37:39;;;;;;;11.30;1.83;;;7.30;99.90;;;;;;5046554;28;20057;-75
2021/04/23 06:40:05;;;;;;;4.10;1.48;;;7.40;99.90;;;;;;5044083;28;20076;-76
2021/04/23 06:42:31;;;;;;;24.25;3.25;;;7.40;99.90;;;;;;5046164;28;20085;-76
2021/04/23 06:44:57;;;;;;;6.68;2.00;;;7.40;99.90;;;;;;5046043;28;20032;-76
2021/04/23 06:47:23;;;;;;;12.70;1.25;;;7.40;99.90;;;;;;5047063;28;20037;-74
2021/04/23 06:49:49;;;;;;;5.20;1.80;;;7.40;99.90;;;;;;5046857;28;20026;-77
2021/04/23 06:52:14;;;;;;;3.47;0.95;;;7.40;99.90;;;;;;5045202;28;20026;-75
2021/04/23 06:54:40;;;;;;;5.00;1.83;;;7.40;99.90;;;;;;5045990;28;20025;-75
2021/04/23 06:57:06;;;;;;;6.82;1.60;;;7.40;99.90;;;;;;5046426;28;20036;-74
2021/04/23 06:59:31;;;;;;;3.55;1.08;;;7.40;99.90;;;;;;5045448;28;20072;-75
2021/04/23 07:01:57;;;;;;;4.25;1.23;;;7.40;99.90;;;;;;5046298;28;20025;-75
2021/04/23 07:04:23;;;;;;;10.90;2.20;;;7.40;99.90;;;;;;5046678;28;20032;-76
2021/04/23 07:06:49;;;;;;;8.00;1.98;;;7.50;99.90;;;;;;5044406;28;20521;-75
2021/04/23 07:09:18;;;;;;;9.80;1.70;;;7.80;99.90;;;;;;5045824;28;20030;-75
2021/04/23 07:11:46;;;;;;;6.10;1.35;;;8.00;99.90;;;;;;5044642;28;20029;-75
2021/04/23 07:14:12;;;;;;;7.03;1.67;;;8.20;99.90;;;;;;5045700;28;20056;-75
2021/04/23 07:16:38;;;;;;;7.78;1.08;;;8.30;99.90;;;;;;5047644;28;20033;-75
2021/04/23 07:19:04;;;;;;;3.78;1.58;;;8.30;99.90;;;;;;5056311;28;20029;-75
2021/04/23 07:21:29;;;;;;;2.55;1.02;;;8.30;99.90;;;;;;5065880;28;20122;-74
2021/04/23 07:23:55;;;;;;;9.57;1.50;;;8.20;99.90;;;;;;5065986;28;20473;-75
2021/04/23 07:26:20;;;;;;;9.52;1.63;;;8.10;99.90;;;;;;5065878;28;20056;-75
2021/04/23 07:28:46;;;;;;;3.50;1.10;;;8.10;99.90;;;;;;5065700;28;20032;-75
2021/04/23 07:31:11;;;;;;;4.65;1.88;;;8.10;99.90;;;;;;5065339;28;20131;-71
2021/04/23 07:33:38;;;;;;;11.93;1.38;;;8.30;99.90;;;;;;5065602;28;20084;-76
2021/04/23 07:36:04;;;;;;;1.85;0.90;;;8.30;99.90;;;;;;5064057;28;20409;-75
2021/04/23 07:38:31;;;;;;;8.85;1.00;;;8.40;99.90;;;;;;5065572;28;20051;-75
2021/04/23 07:40:58;;;;;;;6.03;1.42;;;8.40;99.90;;;;;;5063920;28;20036;-77
2021/04/23 07:43:24;;;;;;;10.45;2.17;;;8.30;99.90;;;;;;5052030;28;20041;-75
2021/04/23 07:45:50;;;;;;;6.57;1.98;;;8.30;99.90;;;;;;5052220;28;20037;-74
2021/04/23 07:48:15;;;;;;;4.13;1.33;;;8.40;99.90;;;;;;5064012;28;20040;-74
2021/04/23 07:50:41;;;;;;;2.28;1.00;;;8.60;99.90;;;;;;5064287;28;20025;-74
2021/04/23 07:53:07;;;;;;;4.57;1.52;;;8.90;99.90;;;;;;5065485;28;20092;-73
2021/04/23 07:55:33;;;;;;;3.28;1.08;;;8.80;99.90;;;;;;5064931;28;20021;-73
2021/04/23 07:57:59;;;;;;;10.85;2.47;;;8.80;99.90;;;;;;5064216;28;20035;-74
2021/04/23 08:00:25;;;;;;;2.45;1.20;;;8.80;99.90;;;;;;5064888;28;20031;-75
2021/04/23 08:02:51;;;;;;;4.00;1.98;;;8.90;99.90;;;;;;5065464;28;20037;-74
2021/04/23 08:05:20;;;;;;;6.93;1.15;;;8.90;99.90;;;;;;5063623;28;20029;-73
2021/04/23 08:07:46;;;;;;;5.15;1.65;;;9.20;99.90;;;;;;5064512;28;20041;-74
2021/04/23 08:10:16;;;;;;;8.05;1.45;;;9.50;99.90;;;;;;5065101;28;20036;-74
2021/04/23 08:12:45;;;;;;;13.60;1.75;;;9.70;99.90;;;;;;5063481;28;20029;-76
2021/04/23 08:15:12;;;;;;;15.23;1.48;;;9.80;99.90;;;;;;5062834;28;20023;-76
2021/04/23 08:17:37;;;;;;;4.10;1.80;;;10.00;99.90;;;;;;5063878;28;20033;-76
2021/04/23 08:20:05;;;;;;;8.50;1.45;;;10.00;99.90;;;;;;5063975;28;20112;-74
2021/04/23 08:22:31;;;;;;;2.47;1.23;;;9.90;99.90;;;;;;5063560;28;20103;-74
2021/04/23 08:24:57;;;;;;;3.72;1.75;;;10.00;99.90;;;;;;5063734;28;20021;-76
2021/04/23 08:27:23;;;;;;;2.80;1.15;;;10.30;99.90;;;;;;5058222;28;20071;-74
2021/04/23 08:29:49;;;;;;;1.90;1.30;;;10.60;99.90;;;;;;5051242;28;20021;-74
2021/04/23 08:32:15;;;;;;;2.25;1.30;;;10.80;99.90;;;;;;5064020;28;20036;-75
2021/04/23 08:34:41;;;;;;;2.13;1.02;;;10.60;99.90;;;;;;5063800;28;20025;-75
2021/04/23 08:37:07;;;;;;;13.07;1.77;;;10.30;99.90;;;;;;5063621;28;20096;-76
2021/04/23 08:39:32;;;;;;;2.47;1.63;;;10.10;99.90;;;;;;5064087;28;20033;-76
2021/04/23 08:41:58;;;;;;;2.50;1.27;;;10.00;99.90;;;;;;5062535;28;20035;-78
2021/04/23 08:44:24;;;;;;;9.10;1.83;;;10.00;99.90;;;;;;5061943;28;20036;-77
2021/04/23 08:46:50;;;;;;;13.98;1.77;;;10.30;99.90;;;;;;5054263;28;20040;-76
2021/04/23 08:49:17;;;;;;;5.55;1.30;;;10.50;99.90;;;;;;5046338;28;20805;-76
2021/04/23 08:51:45;;;;;;;1.70;0.93;;;10.70;99.90;;;;;;5064419;28;20022;-76
2021/04/23 08:54:11;;;;;;;5.75;1.20;;;10.50;99.90;;;;;;5053641;28;20034;-76
2021/04/23 08:56:37;;;;;;;4.47;1.02;;;10.40;99.90;;;;;;5052993;28;20055;-75
2021/04/23 08:59:03;;;;;;;7.13;1.55;;;10.30;99.90;;;;;;5051383;28;20037;-75
2021/04/23 09:01:29;;;;;;;3.28;1.13;;;10.40;99.90;;;;;;5062815;28;20029;-75
2021/04/23 09:03:55;;;;;;;3.70;1.27;;;10.80;99.90;;;;;;5064601;28;20025;-75
2021/04/23 09:06:26;;;;;;;4.60;1.00;;;11.20;99.90;;;;;;5063671;28;20099;-75
2021/04/23 09:08:51;;;;;;;7.93;1.85;;;11.80;99.90;;;;;;5053964;28;20056;-74
2021/04/23 09:11:18;;;;;;;3.28;0.80;;;11.70;99.90;;;;;;5062375;28;20509;-74
2021/04/23 09:13:51;;;;;;;4.45;1.60;;;11.50;99.90;;;;;;5044411;28;20680;-74
2021/04/23 09:16:42;;;;;;;16.08;1.35;;;11.20;99.90;;;;;;5043815;28;20030;-73
2021/04/23 09:19:15;;;;;;;8.88;1.60;;;11.40;99.90;;;;;;5043829;28;20363;-73
2021/04/23 09:21:59;;;;;;;4.97;1.50;;;11.40;99.90;;;;;;5046213;28;20064;-74
2021/04/23 09:24:39;;;;;;;9.30;1.75;;;11.20;99.90;;;;;;5049194;28;20025;-74
2021/04/23 09:27:20;;;;;;;7.43;1.58;;;11.10;99.90;;;;;;5048614;28;20090;-75
2021/04/23 09:29:48;;;;;;;5.35;1.05;;;11.30;99.90;;;;;;5045025;28;20115;-73
2021/04/23 09:32:19;;;;;;;10.65;1.75;;;11.50;99.90;;;;;;5062097;28;20422;-74
2021/04/23 09:35:03;;;;;;;6.15;0.90;;;11.60;99.90;;;;;;5060550;28;20033;-73
2021/04/23 09:37:42;;;;;;;4.75;1.77;;;11.70;99.90;;;;;;5059913;28;20644;-74
2021/04/23 09:40:21;;;;;;;7.07;1.67;;;11.90;99.90;;;;;;5065961;28;20384;-71
2021/04/23 09:42:56;;;;;;;4.03;1.35;;;12.20;99.90;;;;;;5067010;28;20025;-74
2021/04/23 09:45:27;;;;;;;4.78;1.45;;;12.50;99.90;;;;;;5067011;28;20056;-72
2021/04/23 09:47:54;;;;;;;1.75;0.90;;;12.60;99.90;;;;;;5054768;28;20422;-75
2021/04/23 09:50:27;;;;;;;1.88;0.90;;;12.90;99.90;;;;;;5065656;28;20048;-75
2021/04/23 09:52:57;;;;;;;6.38;1.10;;;13.20;99.90;;;;;;5067521;28;20027;-77
2021/04/23 09:55:29;;;;;;;3.08;1.20;;;13.40;99.90;;;;;;5063316;28;20084;-76
2021/04/23 09:57:58;;;;;;;1.85;1.00;;;13.20;99.90;;;;;;5046762;28;20051;-74
2021/04/23 10:00:26;;;;;;;2.15;0.80;;;12.90;99.90;;;;;;5046204;28;20026;-76
2021/04/23 10:02:58;;;;;;;5.93;1.02;;;12.70;99.90;;;;;;5044414;28;20603;-77
2021/04/23 10:05:44;;;;;;;9.27;1.33;;;12.70;99.90;;;;;;5047730;28;20037;-75
2021/04/23 10:08:28;;;;;;;1.13;0.68;;;12.50;99.90;;;;;;5064214;28;20049;-74
2021/04/23 10:10:57;;;;;;;1.67;0.93;;;12.70;99.90;;;;;;5051073;28;20496;-75
2021/04/23 10:13:32;;;;;;;2.90;1.23;;;12.70;99.90;;;;;;5047097;28;20044;-74
2021/04/23 10:15:59;;;;;;;3.30;1.40;;;12.90;99.90;;;;;;5046246;28;20040;-73
2021/04/23 10:18:26;;;;;;;4.65;1.70;;;13.00;99.90;;;;;;5047475;28;20093;-74
2021/04/23 10:20:59;;;;;;;5.20;1.35;;;13.30;99.90;;;;;;5060018;28;20029;-74
2021/04/23 10:23:30;;;;;;;7.03;1.58;;;13.60;99.90;;;;;;5047267;28;20108;-77
2021/04/23 10:25:58;;;;;;;1.88;1.05;;;13.70;99.90;;;;;;5045088;28;20472;-76
2021/04/23 10:28:25;;;;;;;9.70;1.65;;;13.70;99.90;;;;;;5045550;28;20033;-74
2021/04/23 10:30:54;;;;;;;7.45;1.05;;;13.60;99.90;;;;;;5045394;28;20038;-76
2021/04/23 10:33:22;;;;;;;1.60;0.95;;;13.80;99.90;;;;;;5045340;28;20029;-74
2021/04/23 10:35:51;;;;;;;4.93;0.98;;;13.90;99.90;;;;;;5046714;28;20028;-75
2021/04/23 10:38:24;;;;;;;8.07;1.48;;;13.60;99.90;;;;;;5046318;28;20072;-75
2021/04/23 10:41:05;;;;;;;4.72;1.50;;;13.50;99.90;;;;;;5046629;28;20064;-73
2021/04/23 10:43:36;;;;;;;22.25;1.65;;;13.60;99.90;;;;;;5046028;28;20107;-73
2021/04/23 10:46:09;;;;;;;3.63;1.52;;;13.80;99.90;;;;;;5044788;28;20029;-75
2021/04/23 10:48:37;;;;;;;3.80;0.98;;;14.00;99.90;;;;;;5045398;28;20026;-77
2021/04/23 10:51:09;;;;;;;2.35;0.88;;;13.90;99.90;;;;;;5044915;28;20025;-74
2021/04/23 10:53:46;;;;;;;9.10;1.55;;;14.00;99.90;;;;;;5043500;28;20021;-74
2021/04/23 10:56:49;;;;;;;2.95;1.23;;;14.20;99.90;;;;;;5046333;28;20120;-74
2021/04/23 10:59:21;;;;;;;4.07;1.08;;;14.10;99.90;;;;;;5043582;28;20045;-74
2021/04/23 11:01:49;;;;;;;1.35;0.85;;;14.20;99.90;;;;;;5046217;28;20034;-75
2021/04/23 11:04:19;;;;;;;3.78;1.17;;;14.30;99.90;;;;;;5044827;28;20034;-73
2021/04/23 11:06:53;;;;;;;21.45;1.17;;;14.30;99.90;;;;;;5046012;28;20072;-75
2021/04/23 11:09:23;;;;;;;3.60;1.27;;;14.30;99.90;;;;;;5046147;28;20056;-74
2021/04/23 11:12:07;;;;;;;1.65;0.82;;;14.40;99.90;;;;;;5045724;28;20037;-72
2021/04/23 11:14:37;;;;;;;2.60;1.20;;;14.30;99.90;;;;;;5046540;28;20037;-76
2021/04/23 11:17:18;;;;;;;1.95;0.98;;;14.40;99.90;;;;;;5046359;28;20037;-75
2021/04/23 11:19:46;;;;;;;2.90;1.13;;;14.50;99.90;;;;;;5045499;28;20033;-75
2021/04/23 11:22:15;;;;;;;2.55;0.88;;;14.60;99.90;;;;;;5045669;28;20053;-74
2021/04/23 11:25:04;;;;;;;2.72;1.45;;;14.80;99.90;;;;;;5046028;28;20028;-76
2021/04/23 11:27:30;;;;;;;0.88;0.63;;;15.20;99.90;;;;;;5046271;28;20048;-74
2021/04/23 11:29:57;;;;;;;0.88;0.50;;;15.20;99.90;;;;;;5044221;28;20093;-75
2021/04/23 11:32:25;;;;;;;4.38;1.00;;;15.10;99.90;;;;;;5045884;28;20026;-75
2021/04/23 11:35:17;;;;;;;1.85;0.90;;;15.10;99.90;;;;;;5043865;28;20032;-75
2021/04/23 11:37:43;;;;;;;6.85;1.13;;;15.20;99.90;;;;;;5052068;28;20029;-74
2021/04/23 11:40:20;;;;;;;2.55;1.52;;;15.60;99.90;;;;;;5055261;28;20075;-75
2021/04/23 11:42:53;;;;;;;5.88;1.40;;;15.60;99.20;;;;;;5047506;28;20033;-74
2021/04/23 11:45:30;;;;;;;1.35;0.73;;;15.40;99.90;;;;;;5044595;28;20091;-75
2021/04/23 11:47:57;;;;;;;6.20;1.10;;;15.50;99.20;;;;;;5045688;28;20061;-76
2021/04/23 11:50:28;;;;;;;3.35;0.85;;;15.90;99.90;;;;;;5045661;28;20099;-74
2021/04/23 11:53:00;;;;;;;1.17;0.45;;;16.20;97.80;;;;;;5046121;28;20025;-74
2021/04/23 11:55:32;;;;;;;4.03;0.98;;;16.40;97.50;;;;;;5045643;28;20029;-75
2021/04/23 11:58:13;;;;;;;3.80;0.82;;;16.50;96.20;;;;;;5045204;28;20068;-75
2021/04/23 12:00:47;;;;;;;2.63;0.55;;;16.30;94.20;;;;;;5045013;28;20037;-73
2021/04/23 12:03:19;;;;;;;3.35;1.05;;;16.30;94.80;;;;;;5043873;28;20457;-73
2021/04/23 12:05:53;;;;;;;2.40;0.70;;;16.30;95.90;;;;;;5043841;28;20037;-74
2021/04/23 12:08:27;;;;;;;2.00;0.98;;;16.20;94.70;;;;;;5044882;28;20045;-72
2021/04/23 12:11:02;;;;;;;4.65;1.05;;;16.00;95.90;;;;;;5043750;28;20482;-74
2021/04/23 12:13:38;;;;;;;3.38;1.02;;;16.20;95.30;;;;;;5045352;28;20030;-74
2021/04/23 12:16:07;;;;;;;1.40;1.00;;;16.30;96.40;;;;;;5045044;28;20029;-74
2021/04/23 12:18:41;;;;;;;0.25;0.25;;;16.60;96.10;;;;;;5044548;28;20089;-74
2021/04/23 12:21:10;;;;;;;1.90;0.77;;;17.00;95.70;;;;;;5044899;28;20045;-74
2021/04/23 12:23:35;;;;;;;2.65;1.02;;;17.10;94.00;;;;;;5044903;28;20021;-75
2021/04/23 12:26:04;;;;;;;1.50;0.70;;;17.20;93.60;;;;;;5044446;28;20021;-76
2021/04/23 12:28:39;;;;;;;3.38;1.00;;;17.00;93.60;;;;;;5044870;28;20049;-75
2021/04/23 12:31:11;;;;;;;2.38;1.02;;;17.00;94.00;;;;;;5044718;28;20025;-75
2021/04/23 12:33:53;;;;;;;7.25;1.10;;;17.30;93.10;;;;;;5044778;28;20031;-74
2021/04/23 12:36:38;;;;;;;4.60;1.00;;;17.20;93.30;;;;;;5044751;28;20100;-75
2021/04/23 12:39:11;;;;;;;4.15;0.90;;;17.20;91.70;;;;;;5043007;28;20397;-75
2021/04/23 12:41:41;;;;;;;2.75;0.70;;;16.90;92.00;;;;;;5043457;28;20116;-72
2021/04/23 12:44:20;;;;;;;2.58;1.00;;;17.10;92.80;;;;;;5044618;28;20039;-77
2021/04/23 12:46:52;;;;;;;3.00;0.90;;;17.30;91.90;;;;;;5046087;28;20055;-73
2021/04/23 12:49:29;;;;;;;12.05;1.52;;;17.70;92.80;;;;;;5052516;28;20053;-75
2021/04/23 12:52:10;;;;;;;3.05;1.10;;;17.70;90.10;;;;;;5044695;28;20032;-79
2021/04/23 12:54:39;;;;;;;1.95;0.45;;;17.70;90.50;;;;;;5043314;28;20061;-74
2021/04/23 12:57:10;;;;;;;1.25;0.70;;;17.90;90.00;;;;;;5044254;28;20463;-75
2021/04/23 13:00:04;;;;;;;8.35;0.82;;;17.90;89.50;;;;;;5044641;28;20060;-74